sensor_id;sensor_type;location;lat;lon;timestamp;temperature;humidity
11772;DHT22;12556;55.748;13.194;2023-07-13T00:01:52;15.10;99.90
11772;DHT22;12556;55.748;13.194;2023-07-13T00:04:21;15.10;99.90
11772;DHT22;12556;55.748;13.194;2023-07-13T00:06:50;15.00;99.90
11772;DHT22;12556;55.748;13.194;2023-07-13T00:09:18;15.00;99.90
11772;DHT22;12556;55.748;13.194;2023-07-13T00:11:50;15.00;99.90
11772;DHT22;12556;55.748;13.194;2023-07-13T00:14:17;14.90;99.90
11772;DHT22;12556;55.748;13.194;2023-07-13T00:16:44;14.90;99.90
11772;DHT22;12556;55.748;13.194;2023-07-13T00:19:12;15.50;99.90
11772;DHT22;12556;55.748;13.194;2023-07-13T00:21:40;14.90;99.90
11772;DHT22;12556;55.748;13.194;2023-07-13T00:24:08;14.80;99.90
11772;DHT22;12556;55.748;13.194;2023-07-13T00:26:38;14.80;99.90
11772;DHT22;12556;55.748;13.194;2023-07-13T00:29:06;14.80;99.90
11772;DHT22;12556;55.748;13.194;2023-07-13T00:31:35;14.70;99.90
11772;DHT22;12556;55.748;13.194;2023-07-13T00:34:02;14.70;99.90
11772;DHT22;12556;55.748;13.194;2023-07-13T00:36:30;14.70;99.90
11772;DHT22;12556;55.748;13.194;2023-07-13T00:38:57;14.70;99.90
11772;DHT22;12556;55.748;13.194;2023-07-13T00:41:24;14.70;99.90
11772;DHT22;12556;55.748;13.194;2023-07-13T00:43:51;14.60;99.90
11772;DHT22;12556;55.748;13.194;2023-07-13T00:46:25;14.60;99.90
11772;DHT22;12556;55.748;13.194;2023-07-13T00:48:53;14.60;99.90
11772;DHT22;12556;55.748;13.194;2023-07-13T00:51:25;14.60;99.90
11772;DHT22;12556;55.748;13.194;2023-07-13T00:53:54;14.60;99.90
11772;DHT22;12556;55.748;13.194;2023-07-13T00:56:22;14.50;99.90
11772;DHT22;12556;55.748;13.194;2023-07-13T00:58:50;14.50;99.90
11772;DHT22;12556;55.748;13.194;2023-07-13T01:01:17;14.40;99.90
11772;DHT22;12556;55.748;13.194;2023-07-13T01:03:45;14.40;99.90
11772;DHT22;12556;55.748;13.194;2023-07-13T01:06:13;14.40;99.90
11772;DHT22;12556;55.748;13.194;2023-07-13T01:08:40;14.30;99.90
11772;DHT22;12556;55.748;13.194;2023-07-13T01:11:06;14.30;99.90
11772;DHT22;12556;55.748;13.194;2023-07-13T01:13:34;14.20;99.90
11772;DHT22;12556;55.748;13.194;2023-07-13T01:16:05;14.20;99.90
11772;DHT22;12556;55.748;13.194;2023-07-13T01:18:38;14.20;99.90
11772;DHT22;12556;55.748;13.194;2023-07-13T01:21:06;14.10;99.90
11772;DHT22;12556;55.748;13.194;2023-07-13T01:23:33;14.10;99.90
11772;DHT22;12556;55.748;13.194;2023-07-13T01:26:00;14.10;99.90
11772;DHT22;12556;55.748;13.194;2023-07-13T01:28:28;14.00;99.90
11772;DHT22;12556;55.748;13.194;2023-07-13T01:30:57;14.10;99.90
11772;DHT22;12556;55.748;13.194;2023-07-13T01:33:25;14.00;99.90
11772;DHT22;12556;55.748;13.194;2023-07-13T01:35:52;14.00;99.90
11772;DHT22;12556;55.748;13.194;2023-07-13T01:38:22;14.00;99.90
11772;DHT22;12556;55.748;13.194;2023-07-13T01:40:49;14.10;99.90
11772;DHT22;12556;55.748;13.194;2023-07-13T01:43:16;14.00;99.90
11772;DHT22;12556;55.748;13.194;2023-07-13T01:45:43;14.10;99.90
11772;DHT22;12556;55.748;13.194;2023-07-13T01:48:11;14.10;99.90
11772;DHT22;12556;55.748;13.194;2023-07-13T01:50:38;14.10;99.90
11772;DHT22;12556;55.748;13.194;2023-07-13T01:53:05;14.10;99.90
11772;DHT22;12556;55.748;13.194;2023-07-13T01:55:34;14.10;99.90
11772;DHT22;12556;55.748;13.194;2023-07-13T01:58:01;14.10;99.90
11772;DHT22;12556;55.748;13.194;2023-07-13T02:00:28;14.00;99.90
11772;DHT22;12556;55.748;13.194;2023-07-13T02:02:55;14.10;99.90
11772;DHT22;12556;55.748;13.194;2023-07-13T02:05:23;14.10;99.90
11772;DHT22;12556;55.748;13.194;2023-07-13T02:07:50;14.10;99.90
11772;DHT22;12556;55.748;13.194;2023-07-13T02:10:17;14.10;99.90
11772;DHT22;12556;55.748;13.194;2023-07-13T02:12:48;14.10;99.90
11772;DHT22;12556;55.748;13.194;2023-07-13T02:15:15;14.10;99.90
11772;DHT22;12556;55.748;13.194;2023-07-13T02:17:41;14.10;99.90
11772;DHT22;12556;55.748;13.194;2023-07-13T02:20:09;14.10;99.90
11772;DHT22;12556;55.748;13.194;2023-07-13T02:22:36;14.10;99.90
11772;DHT22;12556;55.748;13.194;2023-07-13T02:25:03;14.10;99.90
11772;DHT22;12556;55.748;13.194;2023-07-13T02:27:31;14.10;99.90
11772;DHT22;12556;55.748;13.194;2023-07-13T02:29:59;14.10;99.90
11772;DHT22;12556;55.748;13.194;2023-07-13T02:32:26;14.10;99.90
11772;DHT22;12556;55.748;13.194;2023-07-13T02:34:53;14.10;99.90
11772;DHT22;12556;55.748;13.194;2023-07-13T02:37:20;14.10;99.90
11772;DHT22;12556;55.748;13.194;2023-07-13T02:39:47;14.10;99.90
11772;DHT22;12556;55.748;13.194;2023-07-13T02:42:14;14.10;99.90
11772;DHT22;12556;55.748;13.194;2023-07-13T02:44:41;14.10;99.90
11772;DHT22;12556;55.748;13.194;2023-07-13T02:47:10;14.10;99.90
11772;DHT22;12556;55.748;13.194;2023-07-13T02:49:37;14.00;99.90
11772;DHT22;12556;55.748;13.194;2023-07-13T02:52:04;14.00;99.90
11772;DHT22;12556;55.748;13.194;2023-07-13T02:54:31;14.00;99.90
11772;DHT22;12556;55.748;13.194;2023-07-13T02:56:59;14.00;99.90
11772;DHT22;12556;55.748;13.194;2023-07-13T02:59:25;14.00;99.90
11772;DHT22;12556;55.748;13.194;2023-07-13T03:01:52;14.00;99.90
11772;DHT22;12556;55.748;13.194;2023-07-13T03:04:20;14.00;99.90
11772;DHT22;12556;55.748;13.194;2023-07-13T03:06:47;14.00;99.90
11772;DHT22;12556;55.748;13.194;2023-07-13T03:09:14;14.10;99.90
11772;DHT22;12556;55.748;13.194;2023-07-13T03:11:41;14.10;99.90
11772;DHT22;12556;55.748;13.194;2023-07-13T03:14:08;14.10;99.90
11772;DHT22;12556;55.748;13.194;2023-07-13T03:16:35;14.10;99.90
11772;DHT22;12556;55.748;13.194;2023-07-13T03:19:02;14.10;99.90
11772;DHT22;12556;55.748;13.194;2023-07-13T03:21:31;14.20;99.90
11772;DHT22;12556;55.748;13.194;2023-07-13T03:23:57;14.20;99.90
11772;DHT22;12556;55.748;13.194;2023-07-13T03:26:24;14.20;99.90
11772;DHT22;12556;55.748;13.194;2023-07-13T03:28:51;14.20;99.90
11772;DHT22;12556;55.748;13.194;2023-07-13T03:31:20;14.20;99.90
11772;DHT22;12556;55.748;13.194;2023-07-13T03:33:47;14.20;99.90
11772;DHT22;12556;55.748;13.194;2023-07-13T03:36:16;14.20;99.90
11772;DHT22;12556;55.748;13.194;2023-07-13T03:38:46;14.30;99.90
11772;DHT22;12556;55.748;13.194;2023-07-13T03:41:14;14.30;99.90
11772;DHT22;12556;55.748;13.194;2023-07-13T03:43:41;14.30;99.90
11772;DHT22;12556;55.748;13.194;2023-07-13T03:46:08;14.30;99.90
11772;DHT22;12556;55.748;13.194;2023-07-13T03:48:35;14.40;99.90
11772;DHT22;12556;55.748;13.194;2023-07-13T03:51:02;14.40;99.90
11772;DHT22;12556;55.748;13.194;2023-07-13T03:53:29;14.40;99.90
11772;DHT22;12556;55.748;13.194;2023-07-13T03:55:57;14.40;99.90
11772;DHT22;12556;55.748;13.194;2023-07-13T03:58:27;14.50;99.90
11772;DHT22;12556;55.748;13.194;2023-07-13T04:00:55;14.60;99.90
11772;DHT22;12556;55.748;13.194;2023-07-13T04:03:23;14.60;99.90
11772;DHT22;12556;55.748;13.194;2023-07-13T04:05:51;14.60;99.90
11772;DHT22;12556;55.748;13.194;2023-07-13T04:08:18;14.70;99.90
11772;DHT22;12556;55.748;13.194;2023-07-13T04:10:45;14.70;99.90
11772;DHT22;12556;55.748;13.194;2023-07-13T04:13:13;14.80;99.90
11772;DHT22;12556;55.748;13.194;2023-07-13T04:15:40;14.80;99.90
11772;DHT22;12556;55.748;13.194;2023-07-13T04:18:07;14.90;99.90
11772;DHT22;12556;55.748;13.194;2023-07-13T04:20:34;14.90;99.90
11772;DHT22;12556;55.748;13.194;2023-07-13T04:23:01;15.00;99.90
11772;DHT22;12556;55.748;13.194;2023-07-13T04:25:28;15.00;99.90
11772;DHT22;12556;55.748;13.194;2023-07-13T04:27:55;15.00;99.90
11772;DHT22;12556;55.748;13.194;2023-07-13T04:30:24;15.10;99.90
11772;DHT22;12556;55.748;13.194;2023-07-13T04:32:52;15.20;99.90
11772;DHT22;12556;55.748;13.194;2023-07-13T04:35:19;15.20;99.90
11772;DHT22;12556;55.748;13.194;2023-07-13T04:37:47;15.20;99.90
11772;DHT22;12556;55.748;13.194;2023-07-13T04:40:16;15.30;99.90
11772;DHT22;12556;55.748;13.194;2023-07-13T04:42:43;15.40;99.90
11772;DHT22;12556;55.748;13.194;2023-07-13T04:45:10;15.50;99.90
11772;DHT22;12556;55.748;13.194;2023-07-13T04:47:38;15.60;99.90
11772;DHT22;12556;55.748;13.194;2023-07-13T04:50:06;15.70;99.90
11772;DHT22;12556;55.748;13.194;2023-07-13T04:52:33;15.80;99.90
11772;DHT22;12556;55.748;13.194;2023-07-13T04:55:00;16.00;99.90
11772;DHT22;12556;55.748;13.194;2023-07-13T04:57:27;16.10;99.90
11772;DHT22;12556;55.748;13.194;2023-07-13T04:59:54;16.30;99.90
11772;DHT22;12556;55.748;13.194;2023-07-13T05:02:21;16.40;99.90
11772;DHT22;12556;55.748;13.194;2023-07-13T05:04:49;16.50;99.90
11772;DHT22;12556;55.748;13.194;2023-07-13T05:07:17;16.60;99.90
11772;DHT22;12556;55.748;13.194;2023-07-13T05:09:43;16.70;99.90
11772;DHT22;12556;55.748;13.194;2023-07-13T05:12:11;16.90;99.90
11772;DHT22;12556;55.748;13.194;2023-07-13T05:14:37;17.00;99.90
11772;DHT22;12556;55.748;13.194;2023-07-13T05:17:05;17.10;99.90
11772;DHT22;12556;55.748;13.194;2023-07-13T05:19:31;17.20;99.90
11772;DHT22;12556;55.748;13.194;2023-07-13T05:22:00;17.30;99.90
11772;DHT22;12556;55.748;13.194;2023-07-13T05:24:28;17.40;99.90
11772;DHT22;12556;55.748;13.194;2023-07-13T05:26:55;17.40;99.90
11772;DHT22;12556;55.748;13.194;2023-07-13T05:29:23;17.50;99.90
11772;DHT22;12556;55.748;13.194;2023-07-13T05:31:50;17.60;99.90
11772;DHT22;12556;55.748;13.194;2023-07-13T05:34:17;17.70;99.90
11772;DHT22;12556;55.748;13.194;2023-07-13T05:36:44;17.80;99.90
11772;DHT22;12556;55.748;13.194;2023-07-13T05:39:12;17.90;99.90
11772;DHT22;12556;55.748;13.194;2023-07-13T05:41:39;18.00;99.90
11772;DHT22;12556;55.748;13.194;2023-07-13T05:44:06;18.10;99.90
11772;DHT22;12556;55.748;13.194;2023-07-13T05:46:33;18.20;99.90
11772;DHT22;12556;55.748;13.194;2023-07-13T05:49:00;18.30;99.90
11772;DHT22;12556;55.748;13.194;2023-07-13T05:51:28;18.30;99.90
11772;DHT22;12556;55.748;13.194;2023-07-13T05:53:55;18.40;99.90
11772;DHT22;12556;55.748;13.194;2023-07-13T05:56:23;18.50;99.90
11772;DHT22;12556;55.748;13.194;2023-07-13T05:58:52;18.60;99.90
11772;DHT22;12556;55.748;13.194;2023-07-13T06:01:19;18.70;99.90
11772;DHT22;12556;55.748;13.194;2023-07-13T06:03:46;18.80;99.90
11772;DHT22;12556;55.748;13.194;2023-07-13T06:06:13;18.90;99.90
11772;DHT22;12556;55.748;13.194;2023-07-13T06:08:40;19.00;99.90
11772;DHT22;12556;55.748;13.194;2023-07-13T06:11:09;19.10;99.90
11772;DHT22;12556;55.748;13.194;2023-07-13T06:13:40;19.20;99.90
11772;DHT22;12556;55.748;13.194;2023-07-13T06:16:07;19.30;99.90
11772;DHT22;12556;55.748;13.194;2023-07-13T06:18:35;19.40;99.90
11772;DHT22;12556;55.748;13.194;2023-07-13T06:21:06;19.60;99.90
11772;DHT22;12556;55.748;13.194;2023-07-13T06:23:33;19.70;99.90
11772;DHT22;12556;55.748;13.194;2023-07-13T06:26:00;19.80;99.90
11772;DHT22;12556;55.748;13.194;2023-07-13T06:28:27;19.90;99.90
11772;DHT22;12556;55.748;13.194;2023-07-13T06:30:56;20.00;99.90
11772;DHT22;12556;55.748;13.194;2023-07-13T06:33:23;20.30;99.90
11772;DHT22;12556;55.748;13.194;2023-07-13T06:35:49;20.40;99.90
11772;DHT22;12556;55.748;13.194;2023-07-13T06:38:16;20.40;99.90
11772;DHT22;12556;55.748;13.194;2023-07-13T06:40:43;20.50;99.90
11772;DHT22;12556;55.748;13.194;2023-07-13T06:43:10;20.50;99.90
11772;DHT22;12556;55.748;13.194;2023-07-13T06:45:41;20.50;99.90
11772;DHT22;12556;55.748;13.194;2023-07-13T06:48:10;20.50;99.90
11772;DHT22;12556;55.748;13.194;2023-07-13T06:50:37;20.40;99.90
11772;DHT22;12556;55.748;13.194;2023-07-13T06:53:03;20.30;99.90
11772;DHT22;12556;55.748;13.194;2023-07-13T06:55:30;20.20;99.90
11772;DHT22;12556;55.748;13.194;2023-07-13T06:57:57;20.20;99.90
11772;DHT22;12556;55.748;13.194;2023-07-13T07:00:24;20.10;99.90
11772;DHT22;12556;55.748;13.194;2023-07-13T07:02:51;20.10;99.90
11772;DHT22;12556;55.748;13.194;2023-07-13T07:05:19;20.20;99.90
11772;DHT22;12556;55.748;13.194;2023-07-13T07:07:47;20.20;99.90
11772;DHT22;12556;55.748;13.194;2023-07-13T07:10:14;20.10;99.90
11772;DHT22;12556;55.748;13.194;2023-07-13T07:12:41;20.10;99.90
11772;DHT22;12556;55.748;13.194;2023-07-13T07:15:08;20.10;99.90
11772;DHT22;12556;55.748;13.194;2023-07-13T07:17:35;20.20;99.90
11772;DHT22;12556;55.748;13.194;2023-07-13T07:20:03;20.20;99.90
11772;DHT22;12556;55.748;13.194;2023-07-13T07:22:31;20.40;99.90
11772;DHT22;12556;55.748;13.194;2023-07-13T07:24:58;20.50;99.90
11772;DHT22;12556;55.748;13.194;2023-07-13T07:27:25;20.50;99.90
11772;DHT22;12556;55.748;13.194;2023-07-13T07:29:52;20.60;99.90
11772;DHT22;12556;55.748;13.194;2023-07-13T07:32:20;20.60;99.90
11772;DHT22;12556;55.748;13.194;2023-07-13T07:34:46;20.60;99.90
11772;DHT22;12556;55.748;13.194;2023-07-13T07:37:14;20.70;99.90
11772;DHT22;12556;55.748;13.194;2023-07-13T07:39:42;20.70;99.90
11772;DHT22;12556;55.748;13.194;2023-07-13T07:42:10;20.70;99.90
11772;DHT22;12556;55.748;13.194;2023-07-13T07:44:39;20.70;99.90
11772;DHT22;12556;55.748;13.194;2023-07-13T07:47:06;20.70;99.90
11772;DHT22;12556;55.748;13.194;2023-07-13T07:49:33;20.70;99.90
11772;DHT22;12556;55.748;13.194;2023-07-13T07:52:00;20.80;99.90
11772;DHT22;12556;55.748;13.194;2023-07-13T07:54:27;21.00;99.90
11772;DHT22;12556;55.748;13.194;2023-07-13T07:56:56;21.10;99.90
11772;DHT22;12556;55.748;13.194;2023-07-13T07:59:22;21.20;99.90
11772;DHT22;12556;55.748;13.194;2023-07-13T08:01:49;21.40;99.90
11772;DHT22;12556;55.748;13.194;2023-07-13T08:04:17;21.60;99.90
11772;DHT22;12556;55.748;13.194;2023-07-13T08:06:43;21.60;99.90
11772;DHT22;12556;55.748;13.194;2023-07-13T08:09:10;21.80;99.90
11772;DHT22;12556;55.748;13.194;2023-07-13T08:11:37;22.00;99.90
11772;DHT22;12556;55.748;13.194;2023-07-13T08:14:05;22.10;99.90
11772;DHT22;12556;55.748;13.194;2023-07-13T08:16:32;22.30;99.90
11772;DHT22;12556;55.748;13.194;2023-07-13T08:18:59;22.40;99.90
11772;DHT22;12556;55.748;13.194;2023-07-13T08:21:26;22.40;99.90
11772;DHT22;12556;55.748;13.194;2023-07-13T08:23:53;22.40;99.90
11772;DHT22;12556;55.748;13.194;2023-07-13T08:26:20;22.50;99.90
11772;DHT22;12556;55.748;13.194;2023-07-13T08:28:47;22.60;99.90
11772;DHT22;12556;55.748;13.194;2023-07-13T08:31:15;22.70;99.90
11772;DHT22;12556;55.748;13.194;2023-07-13T08:33:42;22.80;99.90
11772;DHT22;12556;55.748;13.194;2023-07-13T08:36:09;23.00;99.90
11772;DHT22;12556;55.748;13.194;2023-07-13T08:38:36;23.20;99.90
11772;DHT22;12556;55.748;13.194;2023-07-13T08:41:11;23.40;99.90
11772;DHT22;12556;55.748;13.194;2023-07-13T08:43:38;23.50;99.90
11772;DHT22;12556;55.748;13.194;2023-07-13T08:46:11;23.50;99.90
11772;DHT22;12556;55.748;13.194;2023-07-13T08:48:43;23.20;99.90
11772;DHT22;12556;55.748;13.194;2023-07-13T08:51:21;22.60;99.90
11772;DHT22;12556;55.748;13.194;2023-07-13T08:53:53;22.10;99.90
11772;DHT22;12556;55.748;13.194;2023-07-13T08:56:24;21.70;99.90
11772;DHT22;12556;55.748;13.194;2023-07-13T08:58:54;21.40;99.90
11772;DHT22;12556;55.748;13.194;2023-07-13T09:01:27;21.10;99.90
11772;DHT22;12556;55.748;13.194;2023-07-13T09:04:01;20.80;99.90
11772;DHT22;12556;55.748;13.194;2023-07-13T09:06:34;20.60;99.90
11772;DHT22;12556;55.748;13.194;2023-07-13T09:09:06;20.40;99.90
11772;DHT22;12556;55.748;13.194;2023-07-13T09:11:45;20.30;99.90
11772;DHT22;12556;55.748;13.194;2023-07-13T09:14:35;20.40;99.90
11772;DHT22;12556;55.748;13.194;2023-07-13T09:17:10;20.50;99.90
11772;DHT22;12556;55.748;13.194;2023-07-13T09:19:40;20.60;99.90
11772;DHT22;12556;55.748;13.194;2023-07-13T09:22:12;20.80;99.90
11772;DHT22;12556;55.748;13.194;2023-07-13T09:24:54;21.00;99.90
11772;DHT22;12556;55.748;13.194;2023-07-13T09:27:23;21.30;99.90
11772;DHT22;12556;55.748;13.194;2023-07-13T09:30:01;21.40;99.90
11772;DHT22;12556;55.748;13.194;2023-07-13T09:32:29;21.30;99.90
11772;DHT22;12556;55.748;13.194;2023-07-13T09:34:57;21.10;99.90
11772;DHT22;12556;55.748;13.194;2023-07-13T09:37:30;20.80;99.90
11772;DHT22;12556;55.748;13.194;2023-07-13T09:39:58;20.50;99.90
11772;DHT22;12556;55.748;13.194;2023-07-13T09:42:26;20.30;99.90
11772;DHT22;12556;55.748;13.194;2023-07-13T09:44:55;20.00;99.90
11772;DHT22;12556;55.748;13.194;2023-07-13T09:47:24;19.80;99.90
11772;DHT22;12556;55.748;13.194;2023-07-13T09:49:57;19.60;99.90
11772;DHT22;12556;55.748;13.194;2023-07-13T09:52:25;19.40;99.90
11772;DHT22;12556;55.748;13.194;2023-07-13T09:54:54;19.20;99.90
11772;DHT22;12556;55.748;13.194;2023-07-13T09:57:26;19.10;99.90
11772;DHT22;12556;55.748;13.194;2023-07-13T09:59:54;19.10;99.90
11772;DHT22;12556;55.748;13.194;2023-07-13T10:02:26;19.20;99.90
11772;DHT22;12556;55.748;13.194;2023-07-13T10:04:58;19.40;99.90
11772;DHT22;12556;55.748;13.194;2023-07-13T10:07:26;19.50;99.90
11772;DHT22;12556;55.748;13.194;2023-07-13T10:09:53;19.80;99.90
11772;DHT22;12556;55.748;13.194;2023-07-13T10:12:21;20.10;99.90
11772;DHT22;12556;55.748;13.194;2023-07-13T10:14:51;20.30;99.90
11772;DHT22;12556;55.748;13.194;2023-07-13T10:17:25;20.50;99.90
11772;DHT22;12556;55.748;13.194;2023-07-13T10:19:52;20.70;99.90
11772;DHT22;12556;55.748;13.194;2023-07-13T10:22:25;20.90;99.90
11772;DHT22;12556;55.748;13.194;2023-07-13T10:24:54;21.10;99.90
11772;DHT22;12556;55.748;13.194;2023-07-13T10:27:29;21.20;99.90
11772;DHT22;12556;55.748;13.194;2023-07-13T10:30:02;21.20;99.90
11772;DHT22;12556;55.748;13.194;2023-07-13T10:32:31;21.30;99.90
11772;DHT22;12556;55.748;13.194;2023-07-13T10:34:58;21.50;99.90
11772;DHT22;12556;55.748;13.194;2023-07-13T10:37:33;21.60;99.90
11772;DHT22;12556;55.748;13.194;2023-07-13T10:40:05;21.90;99.90
11772;DHT22;12556;55.748;13.194;2023-07-13T10:42:35;21.90;99.90
11772;DHT22;12556;55.748;13.194;2023-07-13T10:45:13;21.80;99.90
11772;DHT22;12556;55.748;13.194;2023-07-13T10:47:41;21.80;99.90
11772;DHT22;12556;55.748;13.194;2023-07-13T10:50:09;21.60;99.90
11772;DHT22;12556;55.748;13.194;2023-07-13T10:52:46;21.40;99.90
11772;DHT22;12556;55.748;13.194;2023-07-13T10:55:31;21.00;99.90
11772;DHT22;12556;55.748;13.194;2023-07-13T10:58:00;20.60;99.90
11772;DHT22;12556;55.748;13.194;2023-07-13T11:00:31;20.30;99.90
11772;DHT22;12556;55.748;13.194;2023-07-13T11:03:00;20.20;99.90
11772;DHT22;12556;55.748;13.194;2023-07-13T11:05:30;20.20;99.90
11772;DHT22;12556;55.748;13.194;2023-07-13T11:08:13;20.20;99.90
11772;DHT22;12556;55.748;13.194;2023-07-13T11:10:49;20.20;99.90
11772;DHT22;12556;55.748;13.194;2023-07-13T11:13:36;20.30;99.90
11772;DHT22;12556;55.748;13.194;2023-07-13T11:16:12;20.60;99.90
11772;DHT22;12556;55.748;13.194;2023-07-13T11:18:39;20.80;99.90
11772;DHT22;12556;55.748;13.194;2023-07-13T11:21:13;21.10;99.90
11772;DHT22;12556;55.748;13.194;2023-07-13T11:23:44;21.30;99.90
11772;DHT22;12556;55.748;13.194;2023-07-13T11:26:40;21.50;99.90
11772;DHT22;12556;55.748;13.194;2023-07-13T11:29:09;21.70;99.90
11772;DHT22;12556;55.748;13.194;2023-07-13T11:31:36;21.80;99.90
11772;DHT22;12556;55.748;13.194;2023-07-13T11:34:14;21.90;99.90
11772;DHT22;12556;55.748;13.194;2023-07-13T11:36:44;21.90;99.90
11772;DHT22;12556;55.748;13.194;2023-07-13T11:39:19;21.90;99.90
11772;DHT22;12556;55.748;13.194;2023-07-13T11:41:51;21.90;99.90
11772;DHT22;12556;55.748;13.194;2023-07-13T11:44:20;21.90;99.90
11772;DHT22;12556;55.748;13.194;2023-07-13T11:46:49;22.00;99.90
11772;DHT22;12556;55.748;13.194;2023-07-13T11:49:18;22.10;99.90
11772;DHT22;12556;55.748;13.194;2023-07-13T11:51:45;22.30;99.90
11772;DHT22;12556;55.748;13.194;2023-07-13T11:54:24;22.40;99.90
11772;DHT22;12556;55.748;13.194;2023-07-13T11:56:52;22.40;99.90
11772;DHT22;12556;55.748;13.194;2023-07-13T11:59:19;22.60;99.90
11772;DHT22;12556;55.748;13.194;2023-07-13T12:01:50;22.80;99.90
11772;DHT22;12556;55.748;13.194;2023-07-13T12:04:21;23.10;99.90
11772;DHT22;12556;55.748;13.194;2023-07-13T12:06:55;23.30;99.90
11772;DHT22;12556;55.748;13.194;2023-07-13T12:09:26;23.40;99.90
11772;DHT22;12556;55.748;13.194;2023-07-13T12:11:54;23.50;99.90
11772;DHT22;12556;55.748;13.194;2023-07-13T12:14:20;23.70;99.90
11772;DHT22;12556;55.748;13.194;2023-07-13T12:16:50;23.80;99.90
11772;DHT22;12556;55.748;13.194;2023-07-13T12:19:18;24.00;99.90
11772;DHT22;12556;55.748;13.194;2023-07-13T12:21:47;24.20;99.90
11772;DHT22;12556;55.748;13.194;2023-07-13T12:24:15;24.30;99.90
11772;DHT22;12556;55.748;13.194;2023-07-13T12:26:44;24.50;99.90
11772;DHT22;12556;55.748;13.194;2023-07-13T12:29:16;24.70;99.90
11772;DHT22;12556;55.748;13.194;2023-07-13T12:31:45;24.80;99.90
11772;DHT22;12556;55.748;13.194;2023-07-13T12:34:14;24.90;99.90
11772;DHT22;12556;55.748;13.194;2023-07-13T12:36:46;25.00;99.60
11772;DHT22;12556;55.748;13.194;2023-07-13T12:39:17;25.10;99.60
11772;DHT22;12556;55.748;13.194;2023-07-13T12:41:47;25.20;99.20
11772;DHT22;12556;55.748;13.194;2023-07-13T12:44:16;25.30;99.30
11772;DHT22;12556;55.748;13.194;2023-07-13T12:46:55;25.50;99.00
11772;DHT22;12556;55.748;13.194;2023-07-13T12:49:25;25.50;98.60
11772;DHT22;12556;55.748;13.194;2023-07-13T12:51:57;25.50;98.00
11772;DHT22;12556;55.748;13.194;2023-07-13T12:54:25;25.60;97.70
11772;DHT22;12556;55.748;13.194;2023-07-13T12:56:54;25.60;97.20
11772;DHT22;12556;55.748;13.194;2023-07-13T12:59:25;25.40;97.10
11772;DHT22;12556;55.748;13.194;2023-07-13T13:01:53;25.20;96.80
11772;DHT22;12556;55.748;13.194;2023-07-13T13:04:20;25.20;96.80
11772;DHT22;12556;55.748;13.194;2023-07-13T13:06:49;25.10;96.90
11772;DHT22;12556;55.748;13.194;2023-07-13T13:09:17;24.90;96.60
11772;DHT22;12556;55.748;13.194;2023-07-13T13:11:45;24.80;96.50
11772;DHT22;12556;55.748;13.194;2023-07-13T13:14:14;24.50;96.70
11772;DHT22;12556;55.748;13.194;2023-07-13T13:16:46;24.30;97.10
11772;DHT22;12556;55.748;13.194;2023-07-13T13:19:17;24.10;97.60
11772;DHT22;12556;55.748;13.194;2023-07-13T13:21:46;23.80;98.00
11772;DHT22;12556;55.748;13.194;2023-07-13T13:24:14;23.50;98.40
11772;DHT22;12556;55.748;13.194;2023-07-13T13:26:43;23.40;98.20
11772;DHT22;12556;55.748;13.194;2023-07-13T13:29:16;23.40;98.50
11772;DHT22;12556;55.748;13.194;2023-07-13T13:31:43;23.50;98.30
11772;DHT22;12556;55.748;13.194;2023-07-13T13:34:11;23.60;97.70
11772;DHT22;12556;55.748;13.194;2023-07-13T13:36:39;23.70;97.10
11772;DHT22;12556;55.748;13.194;2023-07-13T13:39:20;23.80;97.10
11772;DHT22;12556;55.748;13.194;2023-07-13T13:41:48;24.00;97.10
11772;DHT22;12556;55.748;13.194;2023-07-13T13:44:17;24.10;97.10
11772;DHT22;12556;55.748;13.194;2023-07-13T13:46:46;24.30;97.00
11772;DHT22;12556;55.748;13.194;2023-07-13T13:49:16;24.40;97.00
11772;DHT22;12556;55.748;13.194;2023-07-13T13:51:44;24.50;96.90
11772;DHT22;12556;55.748;13.194;2023-07-13T13:54:12;24.60;97.00
11772;DHT22;12556;55.748;13.194;2023-07-13T13:56:42;24.50;96.50
11772;DHT22;12556;55.748;13.194;2023-07-13T13:59:09;24.30;96.60
11772;DHT22;12556;55.748;13.194;2023-07-13T14:01:38;24.30;97.00
11772;DHT22;12556;55.748;13.194;2023-07-13T14:04:06;24.10;97.20
11772;DHT22;12556;55.748;13.194;2023-07-13T14:06:34;24.00;97.00
11772;DHT22;12556;55.748;13.194;2023-07-13T14:09:01;23.80;97.10
11772;DHT22;12556;55.748;13.194;2023-07-13T14:11:31;23.60;97.50
11772;DHT22;12556;55.748;13.194;2023-07-13T14:13:59;23.30;97.70
11772;DHT22;12556;55.748;13.194;2023-07-13T14:16:30;23.20;98.20
11772;DHT22;12556;55.748;13.194;2023-07-13T14:19:00;23.00;99.00
11772;DHT22;12556;55.748;13.194;2023-07-13T14:21:28;22.90;99.30
11772;DHT22;12556;55.748;13.194;2023-07-13T14:23:55;22.70;99.20
11772;DHT22;12556;55.748;13.194;2023-07-13T14:26:23;22.50;99.30
11772;DHT22;12556;55.748;13.194;2023-07-13T14:28:53;22.50;99.90
11772;DHT22;12556;55.748;13.194;2023-07-13T14:31:21;22.60;99.90
11772;DHT22;12556;55.748;13.194;2023-07-13T14:33:48;22.70;99.70
11772;DHT22;12556;55.748;13.194;2023-07-13T14:36:26;22.80;99.50
11772;DHT22;12556;55.748;13.194;2023-07-13T14:38:53;22.90;99.00
11772;DHT22;12556;55.748;13.194;2023-07-13T14:41:20;23.00;98.80
11772;DHT22;12556;55.748;13.194;2023-07-13T14:43:48;23.20;98.50
11772;DHT22;12556;55.748;13.194;2023-07-13T14:46:24;23.20;97.80
11772;DHT22;12556;55.748;13.194;2023-07-13T14:48:58;23.10;97.80
11772;DHT22;12556;55.748;13.194;2023-07-13T14:51:28;23.20;98.30
11772;DHT22;12556;55.748;13.194;2023-07-13T14:53:54;23.40;98.00
11772;DHT22;12556;55.748;13.194;2023-07-13T14:56:22;23.60;97.80
11772;DHT22;12556;55.748;13.194;2023-07-13T14:58:49;23.70;97.50
11772;DHT22;12556;55.748;13.194;2023-07-13T15:01:16;23.80;97.40
11772;DHT22;12556;55.748;13.194;2023-07-13T15:03:45;24.00;97.30
11772;DHT22;12556;55.748;13.194;2023-07-13T15:06:13;24.00;96.90
11772;DHT22;12556;55.748;13.194;2023-07-13T15:08:41;24.00;96.90
11772;DHT22;12556;55.748;13.194;2023-07-13T15:11:09;23.90;96.90
11772;DHT22;12556;55.748;13.194;2023-07-13T15:13:37;23.70;96.70
11772;DHT22;12556;55.748;13.194;2023-07-13T15:16:04;23.60;97.30
11772;DHT22;12556;55.748;13.194;2023-07-13T15:18:33;23.60;97.70
11772;DHT22;12556;55.748;13.194;2023-07-13T15:21:00;23.60;97.90
11772;DHT22;12556;55.748;13.194;2023-07-13T15:23:29;23.60;97.80
11772;DHT22;12556;55.748;13.194;2023-07-13T15:25:57;23.60;97.50